Chicago, Illinois
Traffic Map
Current Weather Conditions
Chicago, Illinois
Overcast
Overcast
66°
Feels Like: 66°
Wind Chill: 66° Ceiling: 20000
Heat Index: 66° Visibility: 10mi
Dew Point: 54° Wind: 8mph
Humidity: 65% Direction: 200° (SSW)
Pressure: 30.06in Gusts: 0mph
Raw Report DataKMDW 251351Z 20007KT 10SM FEW110 SCT150 BKN200 OVC250 19/12 A3006 RMK AO2 SLP173 T01890122
Traffic Incident Summary
Active as of:
Severity:
Category:
InformationThere was an issue retrieving the traffic information for this location. Please try a different location or try again shortly.
Advertisements
Track Severe Weather on mobile